Gaschem Jade — ELSU9 — position and weather

sailwx.info

Track history (hours):
 
Tides and Currents Weather Stations Pressure Air Temp Water Temp Dewpoint Dewpoint Depression Visibility Wind Speed Wind Dir Waves Ship Positions

Gaschem Jade

Last reported at 2015-Dec-30 12:33 UTC. Time now 2016-Feb-11 04:31 UTC.
Position N 36°03' W 005°18'.
Warning: this ship's position is 42 days out of date.

Length 113.2 m; beam 15.9 m; draft 6.1 m.

Type: Ship. MMSI: 636090168.

Date/timePositionNaut miles runAvg speedWind from/ knotsBaromVisibWave heightAir tempDewpointWater temp
2015-Dec-30 12:33N 36°03' W 005°18'4 4.2
2015-Dec-30 11:33N 36°04' W 005°23'3 2.2
2015-Dec-30 10:06N 36°03' W 005°20'5 8.5
2015-Dec-30 09:33N 35°59' W 005°22'1111.1
2015-Dec-30 08:33N 35°56' W 005°35'  
2015-Dec-26 16:31N 35°60' W 005°26'1010.6
2015-Dec-26 15:33N 36°02' W 005°14'  
2015-Dec-23 20:25N 36°47' E 001°44'2110.9
2015-Dec-23 18:29N 36°50' E 002°10'2110.8
2015-Dec-23 16:33N 36°56' E 002°35'1211.4
2015-Dec-23 15:32N 36°58' E 002°49'1111.5
2015-Dec-23 14:33N 37°00' E 003°03'1111.2
2015-Dec-23 13:33N 37°04' E 003°17'1210.9
2015-Dec-23 12:24N 37°08' E 003°31'  
Track history (hours):
 
Tides and Currents Weather Stations Pressure Air Temp Water Temp Dewpoint Dewpoint Depression Visibility Wind Speed Wind Dir Waves Ship Positions

Gaschem Jade

Last reported at 2015-Dec-30 12:33 UTC. Time now 2016-Feb-11 04:31 UTC.
Position N 36°03' W 005°18'.
Warning: this ship's position is 42 days out of date.

Length 113.2 m; beam 15.9 m; draft 6.1 m.

Type: Ship. MMSI: 636090168.

Date/timePositionNaut miles runAvg speedWind from/ knotsBaromVisibWave heightAir tempDewpointWater temp
2015-Dec-30 12:33N 36°03' W 005°18'4 4.2
2015-Dec-30 11:33N 36°04' W 005°23'3 2.2
2015-Dec-30 10:06N 36°03' W 005°20'5 8.5
2015-Dec-30 09:33N 35°59' W 005°22'1111.1
2015-Dec-30 08:33N 35°56' W 005°35'  
2015-Dec-26 16:31N 35°60' W 005°26'1010.6
2015-Dec-26 15:33N 36°02' W 005°14'  
2015-Dec-23 20:25N 36°47' E 001°44'2110.9
2015-Dec-23 18:29N 36°50' E 002°10'2110.8
2015-Dec-23 16:33N 36°56' E 002°35'1211.4
2015-Dec-23 15:32N 36°58' E 002°49'1111.5
2015-Dec-23 14:33N 37°00' E 003°03'1111.2
2015-Dec-23 13:33N 37°04' E 003°17'1210.9
2015-Dec-23 12:24N 37°08' E 003°31'  

Dump ship's entire track history